sensor_id;sensor_type;location;lat;lon;timestamp;temperature;humidity
24091;DHT22;12272;52.426;17.100;2022-07-23T00:04:15;22.90;99.90
24091;DHT22;12272;52.426;17.100;2022-07-23T00:09:18;22.90;99.90
24091;DHT22;12272;52.426;17.100;2022-07-23T00:14:20;22.90;99.90
24091;DHT22;12272;52.426;17.100;2022-07-23T00:19:23;22.90;99.90
24091;DHT22;12272;52.426;17.100;2022-07-23T00:24:25;22.90;99.90
24091;DHT22;12272;52.426;17.100;2022-07-23T00:29:28;22.80;99.90
24091;DHT22;12272;52.426;17.100;2022-07-23T00:34:31;22.90;99.90
24091;DHT22;12272;52.426;17.100;2022-07-23T00:39:34;22.80;99.90
24091;DHT22;12272;52.426;17.100;2022-07-23T00:44:36;22.80;99.90
24091;DHT22;12272;52.426;17.100;2022-07-23T00:49:44;22.80;99.90
24091;DHT22;12272;52.426;17.100;2022-07-23T00:54:46;22.80;99.90
24091;DHT22;12272;52.426;17.100;2022-07-23T00:59:49;22.80;99.90
24091;DHT22;12272;52.426;17.100;2022-07-23T01:04:53;22.80;99.90
24091;DHT22;12272;52.426;17.100;2022-07-23T01:09:55;22.80;99.90
24091;DHT22;12272;52.426;17.100;2022-07-23T01:14:59;22.80;99.90
24091;DHT22;12272;52.426;17.100;2022-07-23T01:20:04;22.80;99.90
24091;DHT22;12272;52.426;17.100;2022-07-23T01:25:08;22.80;99.90
24091;DHT22;12272;52.426;17.100;2022-07-23T01:30:13;22.80;99.90
24091;DHT22;12272;52.426;17.100;2022-07-23T01:35:16;22.80;99.90
24091;DHT22;12272;52.426;17.100;2022-07-23T01:40:19;22.80;99.90
24091;DHT22;12272;52.426;17.100;2022-07-23T01:45:25;22.80;99.90
24091;DHT22;12272;52.426;17.100;2022-07-23T01:50:28;22.80;99.90
24091;DHT22;12272;52.426;17.100;2022-07-23T01:55:44;22.80;99.90
24091;DHT22;12272;52.426;17.100;2022-07-23T02:00:46;22.80;99.90
24091;DHT22;12272;52.426;17.100;2022-07-23T02:05:49;22.80;99.90
24091;DHT22;12272;52.426;17.100;2022-07-23T02:10:52;22.80;99.90
24091;DHT22;12272;52.426;17.100;2022-07-23T02:15:55;22.80;99.90
24091;DHT22;12272;52.426;17.100;2022-07-23T02:20:58;22.80;99.90
24091;DHT22;12272;52.426;17.100;2022-07-23T02:26:02;22.80;99.90
24091;DHT22;12272;52.426;17.100;2022-07-23T02:31:05;22.70;99.90
24091;DHT22;12272;52.426;17.100;2022-07-23T02:36:09;22.80;99.90
24091;DHT22;12272;52.426;17.100;2022-07-23T02:41:11;22.80;99.90
24091;DHT22;12272;52.426;17.100;2022-07-23T02:46:15;22.80;99.90
24091;DHT22;12272;52.426;17.100;2022-07-23T02:51:18;22.80;99.90
24091;DHT22;12272;52.426;17.100;2022-07-23T02:56:27;22.80;99.90
24091;DHT22;12272;52.426;17.100;2022-07-23T03:01:32;22.80;99.90
24091;DHT22;12272;52.426;17.100;2022-07-23T03:06:34;22.80;99.90
24091;DHT22;12272;52.426;17.100;2022-07-23T03:11:37;22.80;99.90
24091;DHT22;12272;52.426;17.100;2022-07-23T03:16:39;22.80;99.90
24091;DHT22;12272;52.426;17.100;2022-07-23T03:21:42;22.80;99.90
24091;DHT22;12272;52.426;17.100;2022-07-23T03:26:47;22.80;99.90
24091;DHT22;12272;52.426;17.100;2022-07-23T03:31:49;22.80;99.90
24091;DHT22;12272;52.426;17.100;2022-07-23T03:36:52;22.80;99.90
24091;DHT22;12272;52.426;17.100;2022-07-23T03:41:54;22.80;99.90
24091;DHT22;12272;52.426;17.100;2022-07-23T03:46:57;22.80;99.90
24091;DHT22;12272;52.426;17.100;2022-07-23T03:52:00;22.90;99.90
24091;DHT22;12272;52.426;17.100;2022-07-23T03:57:03;22.80;99.90
24091;DHT22;12272;52.426;17.100;2022-07-23T04:02:07;22.80;99.90
24091;DHT22;12272;52.426;17.100;2022-07-23T04:07:10;22.90;99.90
24091;DHT22;12272;52.426;17.100;2022-07-23T04:12:13;22.90;99.90
24091;DHT22;12272;52.426;17.100;2022-07-23T04:17:16;22.90;99.90
24091;DHT22;12272;52.426;17.100;2022-07-23T04:22:19;22.90;99.90
24091;DHT22;12272;52.426;17.100;2022-07-23T04:27:21;22.90;99.90
24091;DHT22;12272;52.426;17.100;2022-07-23T04:32:24;22.90;99.90
24091;DHT22;12272;52.426;17.100;2022-07-23T04:37:27;23.00;99.90
24091;DHT22;12272;52.426;17.100;2022-07-23T04:42:29;23.10;99.90
24091;DHT22;12272;52.426;17.100;2022-07-23T04:47:32;23.10;99.90
24091;DHT22;12272;52.426;17.100;2022-07-23T04:52:35;23.10;99.90
24091;DHT22;12272;52.426;17.100;2022-07-23T04:57:38;23.10;99.90
24091;DHT22;12272;52.426;17.100;2022-07-23T05:02:41;23.10;99.90
24091;DHT22;12272;52.426;17.100;2022-07-23T05:07:44;23.10;99.90
24091;DHT22;12272;52.426;17.100;2022-07-23T05:12:47;23.10;99.90
24091;DHT22;12272;52.426;17.100;2022-07-23T05:17:50;23.10;99.90
24091;DHT22;12272;52.426;17.100;2022-07-23T05:22:53;23.10;99.90
24091;DHT22;12272;52.426;17.100;2022-07-23T05:27:55;23.20;99.90
24091;DHT22;12272;52.426;17.100;2022-07-23T05:32:58;23.20;99.90
24091;DHT22;12272;52.426;17.100;2022-07-23T05:38:00;23.20;99.90
24091;DHT22;12272;52.426;17.100;2022-07-23T05:43:03;23.20;99.90
24091;DHT22;12272;52.426;17.100;2022-07-23T05:48:06;23.30;99.90
24091;DHT22;12272;52.426;17.100;2022-07-23T05:53:17;23.30;99.90
24091;DHT22;12272;52.426;17.100;2022-07-23T05:58:33;23.30;99.90
24091;DHT22;12272;52.426;17.100;2022-07-23T06:03:36;23.30;99.90
24091;DHT22;12272;52.426;17.100;2022-07-23T06:08:39;23.40;99.90
24091;DHT22;12272;52.426;17.100;2022-07-23T06:13:43;23.40;99.90
24091;DHT22;12272;52.426;17.100;2022-07-23T06:18:46;23.40;99.90
24091;DHT22;12272;52.426;17.100;2022-07-23T06:23:50;23.30;99.90
24091;DHT22;12272;52.426;17.100;2022-07-23T06:28:52;23.30;99.90
24091;DHT22;12272;52.426;17.100;2022-07-23T06:33:55;23.40;99.90
24091;DHT22;12272;52.426;17.100;2022-07-23T06:38:57;23.40;99.90
24091;DHT22;12272;52.426;17.100;2022-07-23T06:44:00;23.40;99.90
24091;DHT22;12272;52.426;17.100;2022-07-23T06:49:05;23.50;99.90
24091;DHT22;12272;52.426;17.100;2022-07-23T06:54:09;23.60;99.90
24091;DHT22;12272;52.426;17.100;2022-07-23T06:59:12;23.70;99.90
24091;DHT22;12272;52.426;17.100;2022-07-23T07:04:15;23.80;99.90
24091;DHT22;12272;52.426;17.100;2022-07-23T07:09:17;24.00;99.90
24091;DHT22;12272;52.426;17.100;2022-07-23T07:14:20;24.10;99.90
24091;DHT22;12272;52.426;17.100;2022-07-23T07:19:23;24.30;99.90
24091;DHT22;12272;52.426;17.100;2022-07-23T07:24:25;24.60;99.90
24091;DHT22;12272;52.426;17.100;2022-07-23T07:29:34;25.00;99.90
24091;DHT22;12272;52.426;17.100;2022-07-23T07:34:37;25.10;99.90
24091;DHT22;12272;52.426;17.100;2022-07-23T07:39:39;25.50;99.90
24091;DHT22;12272;52.426;17.100;2022-07-23T07:44:41;25.40;99.90
24091;DHT22;12272;52.426;17.100;2022-07-23T07:49:44;25.40;99.90
24091;DHT22;12272;52.426;17.100;2022-07-23T07:54:47;25.90;99.90
24091;DHT22;12272;52.426;17.100;2022-07-23T07:59:49;25.90;99.90
24091;DHT22;12272;52.426;17.100;2022-07-23T08:04:57;26.00;99.90
24091;DHT22;12272;52.426;17.100;2022-07-23T08:10:00;25.80;99.90
24091;DHT22;12272;52.426;17.100;2022-07-23T08:15:02;25.80;99.90
24091;DHT22;12272;52.426;17.100;2022-07-23T08:20:06;25.60;99.90
24091;DHT22;12272;52.426;17.100;2022-07-23T08:25:09;25.30;99.90
24091;DHT22;12272;52.426;17.100;2022-07-23T08:30:12;25.00;99.90
24091;DHT22;12272;52.426;17.100;2022-07-23T08:35:15;24.60;99.90
24091;DHT22;12272;52.426;17.100;2022-07-23T08:40:18;24.40;99.90
24091;DHT22;12272;52.426;17.100;2022-07-23T08:45:23;24.20;99.90
24091;DHT22;12272;52.426;17.100;2022-07-23T08:50:26;23.90;99.90
24091;DHT22;12272;52.426;17.100;2022-07-23T08:55:30;23.80;99.90
24091;DHT22;12272;52.426;17.100;2022-07-23T09:00:32;23.50;99.90
24091;DHT22;12272;52.426;17.100;2022-07-23T09:05:35;23.40;99.90
24091;DHT22;12272;52.426;17.100;2022-07-23T09:10:54;23.60;99.90
24091;DHT22;12272;52.426;17.100;2022-07-23T09:16:03;23.70;99.90
24091;DHT22;12272;52.426;17.100;2022-07-23T09:21:16;23.90;99.90
24091;DHT22;12272;52.426;17.100;2022-07-23T09:26:21;23.70;99.90
24091;DHT22;12272;52.426;17.100;2022-07-23T09:31:26;23.70;99.90
24091;DHT22;12272;52.426;17.100;2022-07-23T09:36:32;23.40;99.90
24091;DHT22;12272;52.426;17.100;2022-07-23T09:41:43;23.40;99.90
24091;DHT22;12272;52.426;17.100;2022-07-23T09:46:50;23.50;99.90
24091;DHT22;12272;52.426;17.100;2022-07-23T09:51:58;23.30;99.90
24091;DHT22;12272;52.426;17.100;2022-07-23T10:02:11;23.10;99.90
24091;DHT22;12272;52.426;17.100;2022-07-23T10:07:38;23.30;99.90
24091;DHT22;12272;52.426;17.100;2022-07-23T10:13:00;23.00;99.90
24091;DHT22;12272;52.426;17.100;2022-07-23T10:18:24;23.40;99.90
24091;DHT22;12272;52.426;17.100;2022-07-23T10:23:42;23.40;99.90
24091;DHT22;12272;52.426;17.100;2022-07-23T10:29:12;23.30;99.90
24091;DHT22;12272;52.426;17.100;2022-07-23T10:39:34;23.40;99.90
24091;DHT22;12272;52.426;17.100;2022-07-23T10:44:47;23.60;99.90
24091;DHT22;12272;52.426;17.100;2022-07-23T10:49:50;23.50;99.90
24091;DHT22;12272;52.426;17.100;2022-07-23T10:54:56;23.20;99.90
24091;DHT22;12272;52.426;17.100;2022-07-23T11:05:07;23.10;99.90
24091;DHT22;12272;52.426;17.100;2022-07-23T11:10:44;23.30;99.90
24091;DHT22;12272;52.426;17.100;2022-07-23T11:31:57;23.60;99.90
24091;DHT22;12272;52.426;17.100;2022-07-23T11:37:03;23.70;99.90
24091;DHT22;12272;52.426;17.100;2022-07-23T11:42:07;23.70;99.90
24091;DHT22;12272;52.426;17.100;2022-07-23T11:47:10;23.80;99.90
24091;DHT22;12272;52.426;17.100;2022-07-23T11:52:15;23.80;99.90
24091;DHT22;12272;52.426;17.100;2022-07-23T11:57:18;23.80;99.90
24091;DHT22;12272;52.426;17.100;2022-07-23T12:02:23;23.90;99.90
24091;DHT22;12272;52.426;17.100;2022-07-23T12:12:39;23.80;99.90
24091;DHT22;12272;52.426;17.100;2022-07-23T12:17:44;24.00;99.90
24091;DHT22;12272;52.426;17.100;2022-07-23T12:22:56;24.00;99.90
24091;DHT22;12272;52.426;17.100;2022-07-23T12:28:01;23.90;99.90
24091;DHT22;12272;52.426;17.100;2022-07-23T12:33:05;23.90;99.90
24091;DHT22;12272;52.426;17.100;2022-07-23T12:38:20;23.80;99.90
24091;DHT22;12272;52.426;17.100;2022-07-23T12:53:43;24.00;99.90
24091;DHT22;12272;52.426;17.100;2022-07-23T12:58:53;24.20;99.90
24091;DHT22;12272;52.426;17.100;2022-07-23T13:04:19;24.50;99.90
24091;DHT22;12272;52.426;17.100;2022-07-23T13:09:25;24.40;99.90
24091;DHT22;12272;52.426;17.100;2022-07-23T13:14:34;24.70;99.90
24091;DHT22;12272;52.426;17.100;2022-07-23T13:19:36;24.80;99.90
24091;DHT22;12272;52.426;17.100;2022-07-23T13:24:38;25.10;99.90
24091;DHT22;12272;52.426;17.100;2022-07-23T13:29:41;25.00;99.90
24091;DHT22;12272;52.426;17.100;2022-07-23T13:34:46;24.50;99.90
24091;DHT22;12272;52.426;17.100;2022-07-23T13:39:51;24.30;99.90
24091;DHT22;12272;52.426;17.100;2022-07-23T13:44:54;24.40;99.90
24091;DHT22;12272;52.426;17.100;2022-07-23T13:49:56;24.40;99.90
24091;DHT22;12272;52.426;17.100;2022-07-23T13:55:01;24.40;99.90
24091;DHT22;12272;52.426;17.100;2022-07-23T14:00:06;24.40;99.90
24091;DHT22;12272;52.426;17.100;2022-07-23T14:05:20;24.20;99.90
24091;DHT22;12272;52.426;17.100;2022-07-23T14:10:23;24.10;99.90
24091;DHT22;12272;52.426;17.100;2022-07-23T14:15:28;24.30;99.90
24091;DHT22;12272;52.426;17.100;2022-07-23T14:20:31;24.30;99.90
24091;DHT22;12272;52.426;17.100;2022-07-23T14:25:33;24.20;99.90
24091;DHT22;12272;52.426;17.100;2022-07-23T14:30:36;24.20;99.90
24091;DHT22;12272;52.426;17.100;2022-07-23T14:35:39;24.30;99.90
24091;DHT22;12272;52.426;17.100;2022-07-23T14:40:42;24.10;99.90
24091;DHT22;12272;52.426;17.100;2022-07-23T14:45:46;23.90;99.90
24091;DHT22;12272;52.426;17.100;2022-07-23T14:50:50;23.90;99.90
24091;DHT22;12272;52.426;17.100;2022-07-23T14:55:53;23.80;99.90
24091;DHT22;12272;52.426;17.100;2022-07-23T15:00:57;23.70;99.90
24091;DHT22;12272;52.426;17.100;2022-07-23T15:05:59;23.90;99.90
24091;DHT22;12272;52.426;17.100;2022-07-23T15:11:02;23.80;99.90
24091;DHT22;12272;52.426;17.100;2022-07-23T15:16:05;23.90;99.90
24091;DHT22;12272;52.426;17.100;2022-07-23T15:21:11;24.00;99.90
24091;DHT22;12272;52.426;17.100;2022-07-23T15:26:14;24.20;99.90
24091;DHT22;12272;52.426;17.100;2022-07-23T15:31:17;23.80;99.90
24091;DHT22;12272;52.426;17.100;2022-07-23T15:36:20;23.80;99.90
24091;DHT22;12272;52.426;17.100;2022-07-23T15:41:23;23.90;99.90
24091;DHT22;12272;52.426;17.100;2022-07-23T15:46:27;23.70;99.90
24091;DHT22;12272;52.426;17.100;2022-07-23T15:51:30;23.70;99.90
24091;DHT22;12272;52.426;17.100;2022-07-23T15:56:35;23.80;99.90
24091;DHT22;12272;52.426;17.100;2022-07-23T16:01:38;23.70;99.90
24091;DHT22;12272;52.426;17.100;2022-07-23T16:06:40;23.60;99.90
24091;DHT22;12272;52.426;17.100;2022-07-23T16:11:43;23.50;99.90
24091;DHT22;12272;52.426;17.100;2022-07-23T16:16:46;23.50;99.90
24091;DHT22;12272;52.426;17.100;2022-07-23T16:21:48;23.40;99.90
24091;DHT22;12272;52.426;17.100;2022-07-23T16:26:52;23.30;99.90
24091;DHT22;12272;52.426;17.100;2022-07-23T16:31:54;23.50;99.90
24091;DHT22;12272;52.426;17.100;2022-07-23T16:36:57;23.40;99.90
24091;DHT22;12272;52.426;17.100;2022-07-23T16:42:00;23.20;99.90
24091;DHT22;12272;52.426;17.100;2022-07-23T16:47:04;23.10;99.90
24091;DHT22;12272;52.426;17.100;2022-07-23T16:52:06;23.10;99.90
24091;DHT22;12272;52.426;17.100;2022-07-23T16:57:09;23.10;99.90
24091;DHT22;12272;52.426;17.100;2022-07-23T17:02:11;23.30;99.90
24091;DHT22;12272;52.426;17.100;2022-07-23T17:07:14;23.10;99.90
24091;DHT22;12272;52.426;17.100;2022-07-23T17:12:17;23.10;99.90
24091;DHT22;12272;52.426;17.100;2022-07-23T17:17:20;23.00;99.90
24091;DHT22;12272;52.426;17.100;2022-07-23T17:22:22;22.90;99.90
24091;DHT22;12272;52.426;17.100;2022-07-23T17:27:25;22.90;99.90
24091;DHT22;12272;52.426;17.100;2022-07-23T17:32:28;22.90;99.90
24091;DHT22;12272;52.426;17.100;2022-07-23T17:37:31;22.80;99.90
24091;DHT22;12272;52.426;17.100;2022-07-23T17:42:34;22.90;99.90
24091;DHT22;12272;52.426;17.100;2022-07-23T17:47:36;22.90;99.90
24091;DHT22;12272;52.426;17.100;2022-07-23T17:52:43;22.80;99.90
24091;DHT22;12272;52.426;17.100;2022-07-23T17:57:46;22.80;99.90
24091;DHT22;12272;52.426;17.100;2022-07-23T18:02:49;23.00;99.90
24091;DHT22;12272;52.426;17.100;2022-07-23T18:07:52;22.90;99.90
24091;DHT22;12272;52.426;17.100;2022-07-23T18:12:54;22.40;99.90
24091;DHT22;12272;52.426;17.100;2022-07-23T18:17:57;22.60;99.90
24091;DHT22;12272;52.426;17.100;2022-07-23T18:23:00;22.70;99.90
24091;DHT22;12272;52.426;17.100;2022-07-23T18:28:04;22.60;99.90
24091;DHT22;12272;52.426;17.100;2022-07-23T18:33:07;22.30;99.90
24091;DHT22;12272;52.426;17.100;2022-07-23T18:38:10;22.60;99.90
24091;DHT22;12272;52.426;17.100;2022-07-23T18:43:12;22.50;99.90
24091;DHT22;12272;52.426;17.100;2022-07-23T18:48:15;22.50;99.90
24091;DHT22;12272;52.426;17.100;2022-07-23T18:53:18;22.30;99.90
24091;DHT22;12272;52.426;17.100;2022-07-23T18:58:21;22.40;99.90
24091;DHT22;12272;52.426;17.100;2022-07-23T19:03:23;22.40;99.90
24091;DHT22;12272;52.426;17.100;2022-07-23T19:08:26;22.50;99.90
24091;DHT22;12272;52.426;17.100;2022-07-23T19:13:28;22.40;99.90
24091;DHT22;12272;52.426;17.100;2022-07-23T19:18:31;22.30;99.90
24091;DHT22;12272;52.426;17.100;2022-07-23T19:23:34;22.20;99.90
24091;DHT22;12272;52.426;17.100;2022-07-23T19:28:37;22.20;99.90
24091;DHT22;12272;52.426;17.100;2022-07-23T19:33:40;22.00;99.90
24091;DHT22;12272;52.426;17.100;2022-07-23T19:38:42;21.80;99.90
24091;DHT22;12272;52.426;17.100;2022-07-23T19:43:45;21.70;99.90
24091;DHT22;12272;52.426;17.100;2022-07-23T19:48:47;21.80;99.90
24091;DHT22;12272;52.426;17.100;2022-07-23T19:53:50;21.50;99.90
24091;DHT22;12272;52.426;17.100;2022-07-23T19:58:52;21.60;99.90
24091;DHT22;12272;52.426;17.100;2022-07-23T20:03:55;22.00;99.90
24091;DHT22;12272;52.426;17.100;2022-07-23T20:08:58;22.30;99.90
24091;DHT22;12272;52.426;17.100;2022-07-23T20:14:01;22.40;99.90
24091;DHT22;12272;52.426;17.100;2022-07-23T20:19:04;22.50;99.90
24091;DHT22;12272;52.426;17.100;2022-07-23T20:24:07;22.60;99.90
24091;DHT22;12272;52.426;17.100;2022-07-23T20:29:13;22.60;99.90
24091;DHT22;12272;52.426;17.100;2022-07-23T20:34:16;22.60;99.90
24091;DHT22;12272;52.426;17.100;2022-07-23T20:39:19;22.60;99.90
24091;DHT22;12272;52.426;17.100;2022-07-23T20:44:22;22.60;99.90
24091;DHT22;12272;52.426;17.100;2022-07-23T20:49:24;22.60;99.90
24091;DHT22;12272;52.426;17.100;2022-07-23T20:54:27;22.60;99.90
24091;DHT22;12272;52.426;17.100;2022-07-23T20:59:29;22.60;99.90
24091;DHT22;12272;52.426;17.100;2022-07-23T21:04:32;22.60;99.90
24091;DHT22;12272;52.426;17.100;2022-07-23T21:09:34;22.60;99.90
24091;DHT22;12272;52.426;17.100;2022-07-23T21:14:37;22.60;99.90
24091;DHT22;12272;52.426;17.100;2022-07-23T21:19:40;22.50;99.90
24091;DHT22;12272;52.426;17.100;2022-07-23T21:24:42;22.60;99.90
24091;DHT22;12272;52.426;17.100;2022-07-23T21:29:45;22.60;99.90
24091;DHT22;12272;52.426;17.100;2022-07-23T21:34:47;22.60;99.90
24091;DHT22;12272;52.426;17.100;2022-07-23T21:39:50;22.50;99.90
24091;DHT22;12272;52.426;17.100;2022-07-23T21:44:53;22.50;99.90
24091;DHT22;12272;52.426;17.100;2022-07-23T21:49:55;22.60;99.90
24091;DHT22;12272;52.426;17.100;2022-07-23T21:55:06;22.60;99.90
24091;DHT22;12272;52.426;17.100;2022-07-23T22:00:14;22.60;99.90
24091;DHT22;12272;52.426;17.100;2022-07-23T22:05:18;22.50;99.90
24091;DHT22;12272;52.426;17.100;2022-07-23T22:10:27;22.50;99.90
24091;DHT22;12272;52.426;17.100;2022-07-23T22:15:29;22.50;99.90
24091;DHT22;12272;52.426;17.100;2022-07-23T22:20:32;22.50;99.90
24091;DHT22;12272;52.426;17.100;2022-07-23T22:25:34;22.50;99.90
24091;DHT22;12272;52.426;17.100;2022-07-23T22:30:37;22.20;99.90
24091;DHT22;12272;52.426;17.100;2022-07-23T22:35:39;22.40;99.90
24091;DHT22;12272;52.426;17.100;2022-07-23T22:40:42;22.50;99.90
24091;DHT22;12272;52.426;17.100;2022-07-23T22:45:44;22.50;99.90
24091;DHT22;12272;52.426;17.100;2022-07-23T22:50:47;22.50;99.90
24091;DHT22;12272;52.426;17.100;2022-07-23T22:55:49;22.50;99.90
24091;DHT22;12272;52.426;17.100;2022-07-23T23:00:52;22.50;99.90
24091;DHT22;12272;52.426;17.100;2022-07-23T23:05:54;22.50;99.90
24091;DHT22;12272;52.426;17.100;2022-07-23T23:10:57;22.50;99.90
24091;DHT22;12272;52.426;17.100;2022-07-23T23:15:59;22.50;99.90
24091;DHT22;12272;52.426;17.100;2022-07-23T23:21:02;22.50;99.90
24091;DHT22;12272;52.426;17.100;2022-07-23T23:26:04;22.40;99.90
24091;DHT22;12272;52.426;17.100;2022-07-23T23:31:07;22.40;99.90
24091;DHT22;12272;52.426;17.100;2022-07-23T23:36:10;22.40;99.90
24091;DHT22;12272;52.426;17.100;2022-07-23T23:41:12;22.40;99.90
24091;DHT22;12272;52.426;17.100;2022-07-23T23:46:15;22.40;99.90
24091;DHT22;12272;52.426;17.100;2022-07-23T23:51:17;22.40;99.90
24091;DHT22;12272;52.426;17.100;2022-07-23T23:56:20;22.40;99.90
